Time;durP1;ratioP1;P1;durP2;ratioP2;P2;SDS_P1;SDS_P2;PMS_P1;PMS_P2;Temp;Humidity;BMP_temperature;BMP_pressure;BME280_temperature;BME280_humidity;BME280_pressure;Samples;Min_cycle;Max_cycle;Signal;HPM_P1;HPM_P2
2021/09/30 00:02:01;;;;;;;76.20;43.60;;;;;;;;;;755189;183;921585;-63
2021/09/30 00:04:27;;;;;;;78.57;40.90;;;;;;;;;;769000;183;918990;-63
2021/09/30 00:06:53;;;;;;;84.57;41.90;;;;;;;;;;761753;180;919588;-63
2021/09/30 00:09:19;;;;;;;84.33;37.70;;;;;;;;;;747702;183;919675;-63
2021/09/30 00:11:48;;;;;;;69.90;38.60;;;;;;;;;;748630;183;918112;-63
2021/09/30 00:14:24;;;;;;;76.90;40.53;;;;;;;;;;748345;184;919591;-65
2021/09/30 00:16:58;;;;;;;65.83;38.83;;;;;;;;;;749141;183;918521;-63
2021/09/30 00:39:59;;;;;;;71.20;40.20;;;;;;;;;;749652;182;918933;-63
2021/09/30 00:42:21;;;;;;;73.63;39.30;;;;;;;;;;753056;183;919390;-63
2021/09/30 00:47:46;;;;;;;68.23;37.33;;;;;;;;;;769089;180;921513;-63
2021/09/30 00:49:54;;;;;;;74.12;42.08;;;;;;;;;;754053;184;918898;-63
2021/09/30 00:52:18;;;;;;;93.43;46.70;;;;;;;;;;767386;180;919335;-62
2021/09/30 00:54:52;;;;;;;115.83;51.03;;;;;;;;;;739654;186;919801;-63
2021/09/30 02:19:05;;;;;;;167.93;63.63;;;;;;;;;;745985;186;919890;-64
2021/09/30 02:24:09;;;;;;;175.77;59.97;;;;;;;;;;762141;180;918333;-63
2021/09/30 02:29:50;;;;;;;162.77;58.85;;;;;;;;;;750510;183;920202;-66
2021/09/30 02:39:50;;;;;;;183.47;63.60;;;;;;;;;;757469;183;918406;-64
2021/09/30 02:59:36;;;;;;;193.75;65.70;;;;;;;;;;744946;186;919529;-64
2021/09/30 03:02:02;;;;;;;174.75;60.25;;;;;;;;;;748602;184;915366;-64
2021/09/30 03:04:28;;;;;;;200.13;59.30;;;;;;;;;;743177;184;919891;-64
2021/09/30 03:06:55;;;;;;;180.67;58.13;;;;;;;;;;746688;184;920312;-64
2021/09/30 03:09:20;;;;;;;185.17;62.63;;;;;;;;;;750863;186;919618;-64
2021/09/30 03:11:50;;;;;;;193.93;61.57;;;;;;;;;;747166;184;918161;-64
2021/09/30 03:14:11;;;;;;;190.07;67.25;;;;;;;;;;746345;187;919485;-65
2021/09/30 03:16:42;;;;;;;181.10;59.87;;;;;;;;;;749516;184;918822;-64
2021/09/30 03:19:15;;;;;;;195.20;63.47;;;;;;;;;;767779;180;919900;-64
2021/09/30 03:24:00;;;;;;;197.40;62.50;;;;;;;;;;745947;183;919882;-65
2021/09/30 03:26:26;;;;;;;175.87;60.03;;;;;;;;;;765867;182;919440;-64
2021/09/30 03:28:52;;;;;;;180.97;59.30;;;;;;;;;;754660;180;920014;-64
2021/09/30 03:31:18;;;;;;;197.25;62.83;;;;;;;;;;754367;182;1634671;-64
2021/09/30 03:33:46;;;;;;;198.17;63.03;;;;;;;;;;761476;183;918978;-64
2021/09/30 03:36:10;;;;;;;219.70;69.50;;;;;;;;;;757602;183;921063;-64
2021/09/30 03:38:35;;;;;;;208.13;63.90;;;;;;;;;;756824;183;919658;-63
2021/09/30 03:41:01;;;;;;;208.93;66.43;;;;;;;;;;758738;182;919518;-66
2021/09/30 03:43:27;;;;;;;224.53;66.93;;;;;;;;;;751665;184;919444;-65
2021/09/30 03:45:53;;;;;;;238.33;63.83;;;;;;;;;;762643;180;872739;-67
2021/09/30 03:48:19;;;;;;;197.68;63.15;;;;;;;;;;746947;184;1027508;-64
2021/09/30 03:53:26;;;;;;;193.63;63.03;;;;;;;;;;747146;186;919635;-64
2021/09/30 04:00:48;;;;;;;144.00;55.37;;;;;;;;;;766262;183;918797;-64
2021/09/30 04:03:14;;;;;;;128.53;54.17;;;;;;;;;;751027;183;919396;-65
2021/09/30 04:05:40;;;;;;;138.67;51.40;;;;;;;;;;772120;180;919502;-64
2021/09/30 04:08:06;;;;;;;127.37;52.53;;;;;;;;;;768394;180;919529;-65
2021/09/30 04:10:31;;;;;;;100.10;46.87;;;;;;;;;;756226;184;918829;-65
2021/09/30 04:12:57;;;;;;;95.57;45.50;;;;;;;;;;751063;183;919165;-64
2021/09/30 04:15:23;;;;;;;102.68;45.55;;;;;;;;;;742420;186;919770;-64
2021/09/30 04:17:49;;;;;;;96.80;44.80;;;;;;;;;;754348;187;757753;-66
2021/09/30 04:20:17;;;;;;;104.90;44.33;;;;;;;;;;771955;180;622659;-64
2021/09/30 04:22:42;;;;;;;83.50;41.50;;;;;;;;;;762996;183;625814;-65
2021/09/30 04:25:07;;;;;;;75.93;42.33;;;;;;;;;;766949;183;628370;-63
2021/09/30 04:27:33;;;;;;;88.40;42.37;;;;;;;;;;746140;187;919738;-64
2021/09/30 04:29:59;;;;;;;72.77;39.37;;;;;;;;;;762661;183;918339;-64
2021/09/30 04:32:25;;;;;;;63.80;35.50;;;;;;;;;;768327;180;918570;-64
2021/09/30 04:34:50;;;;;;;68.10;35.50;;;;;;;;;;759430;184;918784;-64
2021/09/30 04:37:16;;;;;;;60.13;34.27;;;;;;;;;;752960;184;918747;-64
2021/09/30 04:39:42;;;;;;;54.30;31.63;;;;;;;;;;757755;180;919370;-64
2021/09/30 04:42:08;;;;;;;55.03;29.97;;;;;;;;;;752319;183;616315;-64
2021/09/30 04:44:34;;;;;;;54.70;31.00;;;;;;;;;;758290;183;628079;-65
2021/09/30 04:47:00;;;;;;;50.80;29.83;;;;;;;;;;750028;183;920471;-64
2021/09/30 04:49:25;;;;;;;41.17;26.73;;;;;;;;;;751168;187;918524;-65
2021/09/30 04:51:51;;;;;;;40.03;26.40;;;;;;;;;;765603;181;617918;-64
2021/09/30 04:54:17;;;;;;;42.53;26.30;;;;;;;;;;747924;186;937756;-64
2021/09/30 04:56:43;;;;;;;41.57;24.30;;;;;;;;;;759858;183;915233;-63
2021/09/30 04:59:09;;;;;;;39.90;23.40;;;;;;;;;;754413;183;905246;-63
2021/09/30 05:01:35;;;;;;;37.60;22.33;;;;;;;;;;755558;183;919324;-64
2021/09/30 05:04:00;;;;;;;35.13;20.57;;;;;;;;;;758398;183;919973;-64
2021/09/30 05:06:26;;;;;;;32.77;21.97;;;;;;;;;;771096;180;918350;-64
2021/09/30 05:08:57;;;;;;;32.93;19.17;;;;;;;;;;766125;180;918893;-64
2021/09/30 05:11:18;;;;;;;35.33;20.93;;;;;;;;;;759475;181;919126;-65
2021/09/30 05:13:44;;;;;;;36.13;20.33;;;;;;;;;;761927;184;919422;-64
2021/09/30 05:16:10;;;;;;;34.63;19.67;;;;;;;;;;755975;183;624895;-64
2021/09/30 05:18:36;;;;;;;31.20;20.43;;;;;;;;;;760555;183;919578;-64
2021/09/30 05:21:01;;;;;;;30.43;19.60;;;;;;;;;;765655;183;918771;-64
2021/09/30 05:23:27;;;;;;;32.20;18.17;;;;;;;;;;746317;187;920924;-64
2021/09/30 05:25:53;;;;;;;28.70;18.17;;;;;;;;;;747240;187;922371;-64
2021/09/30 05:28:19;;;;;;;28.60;18.57;;;;;;;;;;757056;183;919714;-64
2021/09/30 05:30:45;;;;;;;30.30;19.40;;;;;;;;;;753607;184;913706;-64
2021/09/30 05:33:11;;;;;;;34.00;21.77;;;;;;;;;;754820;183;920041;-66
2021/09/30 05:35:36;;;;;;;34.67;21.03;;;;;;;;;;754357;184;915484;-62
2021/09/30 05:38:02;;;;;;;36.87;20.50;;;;;;;;;;761216;184;634475;-64
2021/09/30 05:40:29;;;;;;;29.80;18.30;;;;;;;;;;753379;183;632766;-64
2021/09/30 05:42:54;;;;;;;33.93;18.30;;;;;;;;;;762903;183;919161;-63
2021/09/30 05:45:20;;;;;;;33.60;20.67;;;;;;;;;;751107;184;919126;-64
2021/09/30 05:47:46;;;;;;;30.50;18.87;;;;;;;;;;760624;180;919229;-64
2021/09/30 05:50:11;;;;;;;26.80;17.90;;;;;;;;;;765666;182;919599;-64
2021/09/30 05:52:37;;;;;;;31.00;18.80;;;;;;;;;;759260;183;920107;-66
2021/09/30 05:55:04;;;;;;;30.30;20.53;;;;;;;;;;762174;181;917601;-64
2021/09/30 05:57:30;;;;;;;28.93;20.07;;;;;;;;;;757468;184;919420;-64
2021/09/30 05:59:58;;;;;;;30.10;21.00;;;;;;;;;;750431;184;1120025;-64
2021/09/30 06:04:10;;;;;;;31.80;20.40;;;;;;;;;;765675;183;919835;-64
2021/09/30 06:06:55;;;;;;;35.63;21.40;;;;;;;;;;755797;183;919398;-64
2021/09/30 06:10:19;;;;;;;31.90;19.87;;;;;;;;;;743914;187;916422;-65
2021/09/30 06:12:42;;;;;;;28.40;21.50;;;;;;;;;;748312;187;916137;-64
2021/09/30 06:15:13;;;;;;;30.13;20.93;;;;;;;;;;760931;183;918741;-63
2021/09/30 06:17:32;;;;;;;32.20;19.57;;;;;;;;;;746959;183;920133;-63
2021/09/30 06:19:58;;;;;;;36.13;20.80;;;;;;;;;;746935;183;919502;-63
2021/09/30 06:22:24;;;;;;;29.97;21.40;;;;;;;;;;760626;181;919832;-62
2021/09/30 06:24:50;;;;;;;26.43;20.30;;;;;;;;;;767338;180;919293;-64
2021/09/30 06:27:15;;;;;;;28.17;19.67;;;;;;;;;;763423;180;919569;-64
2021/09/30 06:29:41;;;;;;;27.37;19.17;;;;;;;;;;764148;181;918873;-63
2021/09/30 06:32:07;;;;;;;39.70;21.40;;;;;;;;;;776606;180;919895;-63
2021/09/30 06:34:33;;;;;;;33.37;21.93;;;;;;;;;;773543;180;919723;-63
2021/09/30 06:36:59;;;;;;;31.00;20.13;;;;;;;;;;765946;180;921956;-64
2021/09/30 06:39:24;;;;;;;33.00;19.33;;;;;;;;;;765268;181;919339;-63
2021/09/30 06:41:50;;;;;;;26.47;18.37;;;;;;;;;;758423;184;919894;-64
2021/09/30 06:44:16;;;;;;;28.80;20.47;;;;;;;;;;757058;183;919275;-64
2021/09/30 06:46:42;;;;;;;26.37;20.45;;;;;;;;;;759630;183;918963;-63
2021/09/30 06:49:08;;;;;;;27.40;18.43;;;;;;;;;;760612;181;917267;-64
2021/09/30 06:51:35;;;;;;;30.60;20.20;;;;;;;;;;761344;182;919285;-64
2021/09/30 06:54:00;;;;;;;27.80;19.20;;;;;;;;;;757524;180;950482;-64
2021/09/30 06:56:27;;;;;;;28.37;19.90;;;;;;;;;;760886;183;919618;-63
2021/09/30 06:58:53;;;;;;;23.60;18.30;;;;;;;;;;765234;180;919391;-64
2021/09/30 07:01:17;;;;;;;24.03;16.80;;;;;;;;;;748314;186;919024;-64
2021/09/30 07:03:43;;;;;;;23.90;15.83;;;;;;;;;;763949;183;918132;-63
2021/09/30 07:06:09;;;;;;;21.97;15.33;;;;;;;;;;760466;183;919162;-64
2021/09/30 07:08:35;;;;;;;22.37;15.23;;;;;;;;;;764457;180;1022238;-64
2021/09/30 07:11:01;;;;;;;18.50;14.87;;;;;;;;;;767377;182;918427;-64
2021/09/30 07:13:27;;;;;;;18.50;14.30;;;;;;;;;;764060;180;920828;-64
2021/09/30 07:15:53;;;;;;;17.33;13.70;;;;;;;;;;765593;183;918948;-64
2021/09/30 07:18:18;;;;;;;15.93;12.83;;;;;;;;;;750269;183;918945;-64
2021/09/30 07:20:45;;;;;;;16.27;11.50;;;;;;;;;;754000;186;919464;-64
2021/09/30 07:23:11;;;;;;;11.57;9.57;;;;;;;;;;761315;183;921557;-63
2021/09/30 07:25:37;;;;;;;20.23;10.65;;;;;;;;;;744832;184;918979;-64
2021/09/30 07:28:03;;;;;;;12.47;10.13;;;;;;;;;;736010;190;918921;-64
2021/09/30 07:30:31;;;;;;;9.90;8.47;;;;;;;;;;758224;184;919054;-65
2021/09/30 07:32:54;;;;;;;10.17;7.30;;;;;;;;;;766768;180;920665;-63
2021/09/30 07:35:20;;;;;;;7.80;7.00;;;;;;;;;;772509;181;918601;-64
2021/09/30 07:37:46;;;;;;;8.53;6.83;;;;;;;;;;754752;183;918423;-64
2021/09/30 07:40:15;;;;;;;13.33;7.20;;;;;;;;;;732299;188;920126;-64
2021/09/30 07:42:38;;;;;;;10.07;6.27;;;;;;;;;;756872;180;919642;-64
2021/09/30 07:45:04;;;;;;;18.83;10.90;;;;;;;;;;759323;181;917911;-63
2021/09/30 07:47:30;;;;;;;11.32;7.53;;;;;;;;;;753031;185;919606;-64
2021/09/30 07:49:56;;;;;;;9.13;6.07;;;;;;;;;;759767;183;919548;-64
2021/09/30 07:52:22;;;;;;;11.13;6.60;;;;;;;;;;768055;183;918607;-64
2021/09/30 07:54:48;;;;;;;9.37;6.07;;;;;;;;;;760699;183;918678;-64
2021/09/30 07:57:14;;;;;;;6.72;6.03;;;;;;;;;;763052;183;918574;-64
2021/09/30 07:59:41;;;;;;;9.83;6.03;;;;;;;;;;769215;183;918865;-64
2021/09/30 08:02:05;;;;;;;8.60;5.20;;;;;;;;;;760464;183;920000;-63
2021/09/30 08:04:31;;;;;;;5.90;4.93;;;;;;;;;;744963;184;921383;-64
2021/09/30 08:06:57;;;;;;;7.43;5.33;;;;;;;;;;748494;184;918664;-63
2021/09/30 08:09:23;;;;;;;6.20;4.73;;;;;;;;;;758810;183;919340;-63
2021/09/30 08:11:49;;;;;;;5.97;4.30;;;;;;;;;;762860;183;919111;-63
2021/09/30 08:14:14;;;;;;;7.67;4.67;;;;;;;;;;758358;183;919527;-64
2021/09/30 08:16:40;;;;;;;9.33;4.67;;;;;;;;;;751454;187;918545;-63
2021/09/30 08:19:06;;;;;;;6.53;4.60;;;;;;;;;;756038;183;918984;-63
2021/09/30 08:21:32;;;;;;;9.23;6.90;;;;;;;;;;745882;185;1020692;-63
2021/09/30 08:23:58;;;;;;;8.13;5.40;;;;;;;;;;752306;187;918857;-64
2021/09/30 08:26:24;;;;;;;5.73;4.83;;;;;;;;;;755912;182;920113;-63
2021/09/30 08:28:51;;;;;;;12.07;4.67;;;;;;;;;;759856;183;923916;-63
2021/09/30 08:31:16;;;;;;;7.23;5.03;;;;;;;;;;777813;180;919571;-62
2021/09/30 08:33:42;;;;;;;5.20;4.70;;;;;;;;;;770705;180;919669;-61
2021/09/30 08:36:09;;;;;;;6.73;5.37;;;;;;;;;;766725;180;918838;-61
2021/09/30 08:38:33;;;;;;;5.73;4.20;;;;;;;;;;758572;183;919414;-63
2021/09/30 08:40:59;;;;;;;7.00;3.80;;;;;;;;;;757672;183;918782;-62
2021/09/30 08:43:25;;;;;;;6.70;4.40;;;;;;;;;;751210;183;918588;-63
2021/09/30 08:45:51;;;;;;;6.40;5.57;;;;;;;;;;759123;183;917670;-62
2021/09/30 08:48:17;;;;;;;5.50;5.00;;;;;;;;;;772199;180;919197;-62
2021/09/30 08:50:43;;;;;;;7.77;5.10;;;;;;;;;;764489;180;917837;-62
2021/09/30 08:53:09;;;;;;;6.13;4.83;;;;;;;;;;766260;181;918782;-61
2021/09/30 08:55:35;;;;;;;5.07;4.30;;;;;;;;;;770988;180;916194;-62
2021/09/30 08:58:03;;;;;;;7.13;4.37;;;;;;;;;;756001;183;968908;-62
2021/09/30 09:00:27;;;;;;;4.03;3.60;;;;;;;;;;757763;183;921237;-61
2021/09/30 09:02:53;;;;;;;6.27;4.90;;;;;;;;;;760944;182;918823;-63
2021/09/30 09:05:18;;;;;;;9.27;3.93;;;;;;;;;;760244;183;923404;-61
2021/09/30 09:07:50;;;;;;;4.87;3.75;;;;;;;;;;756263;183;1226468;-60
2021/09/30 09:10:16;;;;;;;6.30;4.73;;;;;;;;;;749783;187;919468;-63
2021/09/30 09:12:42;;;;;;;11.80;3.97;;;;;;;;;;751462;187;903259;-63
2021/09/30 09:15:10;;;;;;;4.70;3.70;;;;;;;;;;737298;188;923324;-64
2021/09/30 09:17:40;;;;;;;3.57;2.80;;;;;;;;;;761796;181;635383;-64
2021/09/30 09:20:02;;;;;;;4.13;3.30;;;;;;;;;;756713;184;920030;-64
2021/09/30 09:22:30;;;;;;;6.70;4.73;;;;;;;;;;765831;180;915208;-63
2021/09/30 09:24:58;;;;;;;8.43;5.87;;;;;;;;;;768284;180;634024;-66
2021/09/30 09:27:23;;;;;;;7.33;5.80;;;;;;;;;;771795;180;639134;-64
2021/09/30 09:29:49;;;;;;;8.10;6.40;;;;;;;;;;768583;180;622871;-64
2021/09/30 09:32:15;;;;;;;17.00;5.93;;;;;;;;;;772996;180;630698;-64
2021/09/30 09:34:41;;;;;;;4.30;3.37;;;;;;;;;;777964;180;616325;-65
2021/09/30 09:37:13;;;;;;;7.90;2.80;;;;;;;;;;767045;181;913899;-63
2021/09/30 09:39:38;;;;;;;4.67;2.37;;;;;;;;;;765485;180;913761;-63
2021/09/30 09:42:04;;;;;;;2.60;1.90;;;;;;;;;;768611;180;920662;-63
2021/09/30 09:44:30;;;;;;;5.63;4.47;;;;;;;;;;768288;180;920258;-63
2021/09/30 09:46:56;;;;;;;12.13;7.07;;;;;;;;;;767544;180;919333;-62
2021/09/30 09:49:22;;;;;;;13.03;6.90;;;;;;;;;;748542;186;919368;-63
2021/09/30 09:51:48;;;;;;;10.63;7.10;;;;;;;;;;749583;185;918797;-63
2021/09/30 09:54:14;;;;;;;11.27;8.10;;;;;;;;;;751700;185;919608;-63
2021/09/30 09:56:40;;;;;;;11.40;8.97;;;;;;;;;;752883;184;917312;-63
2021/09/30 09:59:06;;;;;;;10.20;6.90;;;;;;;;;;758283;183;920463;-63
2021/09/30 10:01:38;;;;;;;14.10;8.35;;;;;;;;;;757858;183;917659;-63
2021/09/30 10:04:04;;;;;;;10.17;8.60;;;;;;;;;;764479;183;923992;-64
2021/09/30 10:06:29;;;;;;;10.20;8.87;;;;;;;;;;771019;180;924626;-63
2021/09/30 10:08:55;;;;;;;13.23;8.83;;;;;;;;;;750302;184;917837;-63
2021/09/30 10:11:21;;;;;;;12.40;9.30;;;;;;;;;;759730;180;917732;-63
2021/09/30 10:13:47;;;;;;;11.73;8.85;;;;;;;;;;749921;184;909015;-63
2021/09/30 10:16:16;;;;;;;13.50;9.50;;;;;;;;;;753704;183;919826;-63
2021/09/30 10:18:41;;;;;;;12.60;8.47;;;;;;;;;;769630;181;913148;-63
2021/09/30 10:21:07;;;;;;;14.50;9.47;;;;;;;;;;765265;181;913730;-63
2021/09/30 10:23:35;;;;;;;10.60;8.50;;;;;;;;;;747783;185;920609;-63
2021/09/30 10:26:15;;;;;;;14.10;10.67;;;;;;;;;;761547;183;916936;-64
2021/09/30 10:28:41;;;;;;;12.30;9.13;;;;;;;;;;739512;187;920487;-64
2021/09/30 10:31:21;;;;;;;11.50;9.20;;;;;;;;;;755977;182;915813;-64
2021/09/30 10:33:47;;;;;;;16.87;9.40;;;;;;;;;;773245;181;919118;-64
2021/09/30 10:36:19;;;;;;;9.93;7.37;;;;;;;;;;763447;180;921173;-64
2021/09/30 10:38:45;;;;;;;10.07;7.23;;;;;;;;;;761350;180;930230;-64
2021/09/30 10:41:12;;;;;;;12.27;9.20;;;;;;;;;;768443;180;938016;-65
2021/09/30 10:43:41;;;;;;;12.13;8.10;;;;;;;;;;773747;180;914237;-64
2021/09/30 10:46:03;;;;;;;12.90;8.57;;;;;;;;;;760259;181;915916;-64
2021/09/30 10:48:43;;;;;;;11.38;7.70;;;;;;;;;;751274;183;919205;-64
2021/09/30 10:51:09;;;;;;;9.37;8.23;;;;;;;;;;748481;184;915438;-64
2021/09/30 10:53:41;;;;;;;11.60;8.07;;;;;;;;;;735707;188;914680;-63
2021/09/30 10:56:18;;;;;;;10.03;8.30;;;;;;;;;;740462;185;918706;-64
2021/09/30 10:58:44;;;;;;;11.20;9.02;;;;;;;;;;744216;185;929147;-64
2021/09/30 11:01:09;;;;;;;10.63;7.57;;;;;;;;;;761889;183;919500;-64
2021/09/30 11:03:35;;;;;;;8.93;6.63;;;;;;;;;;763649;183;968817;-64
2021/09/30 11:06:14;;;;;;;7.50;5.70;;;;;;;;;;756172;183;919644;-64
2021/09/30 11:08:40;;;;;;;10.80;6.80;;;;;;;;;;755956;184;919102;-64
2021/09/30 11:11:10;;;;;;;10.18;7.57;;;;;;;;;;759502;183;917995;-64
2021/09/30 11:13:50;;;;;;;9.73;6.73;;;;;;;;;;760644;180;919703;-64
2021/09/30 11:16:17;;;;;;;8.60;5.57;;;;;;;;;;743924;184;918530;-63
2021/09/30 11:18:43;;;;;;;7.60;5.70;;;;;;;;;;756215;185;919630;-63
2021/09/30 11:21:15;;;;;;;7.80;5.40;;;;;;;;;;743772;184;919715;-64
2021/09/30 11:23:46;;;;;;;6.87;5.30;;;;;;;;;;747905;187;919862;-64
2021/09/30 11:26:12;;;;;;;5.10;4.33;;;;;;;;;;745306;186;919150;-66
2021/09/30 11:28:38;;;;;;;6.30;4.90;;;;;;;;;;736092;189;918208;-64
2021/09/30 11:31:10;;;;;;;4.20;3.33;;;;;;;;;;739475;186;918808;-64
2021/09/30 11:33:36;;;;;;;5.30;3.63;;;;;;;;;;746358;186;917971;-65
2021/09/30 11:36:01;;;;;;;4.40;3.70;;;;;;;;;;733558;192;918527;-63
2021/09/30 11:38:27;;;;;;;4.87;3.77;;;;;;;;;;754363;184;919206;-63
2021/09/30 11:40:53;;;;;;;5.87;2.67;;;;;;;;;;760941;184;920592;-63
2021/09/30 11:43:19;;;;;;;5.67;2.50;;;;;;;;;;757318;183;920160;-64
2021/09/30 11:45:45;;;;;;;2.90;1.40;;;;;;;;;;765112;183;916679;-64
2021/09/30 11:48:11;;;;;;;7.93;2.13;;;;;;;;;;753046;183;920594;-64
2021/09/30 11:50:36;;;;;;;4.30;2.70;;;;;;;;;;746799;186;920427;-63
2021/09/30 11:53:03;;;;;;;3.80;2.77;;;;;;;;;;752585;187;917886;-64
2021/09/30 11:55:29;;;;;;;5.57;3.87;;;;;;;;;;750496;184;918059;-64
2021/09/30 11:57:56;;;;;;;7.03;3.80;;;;;;;;;;746361;184;919310;-64
2021/09/30 12:00:22;;;;;;;6.00;3.57;;;;;;;;;;735127;189;919214;-65
2021/09/30 12:02:53;;;;;;;4.93;3.33;;;;;;;;;;749743;186;918793;-63
2021/09/30 12:05:18;;;;;;;3.50;2.50;;;;;;;;;;760736;183;918545;-64
2021/09/30 12:07:45;;;;;;;4.27;2.83;;;;;;;;;;738704;187;918231;-64
2021/09/30 12:10:10;;;;;;;8.60;3.30;;;;;;;;;;762906;184;917462;-67
2021/09/30 12:12:36;;;;;;;4.87;2.60;;;;;;;;;;747944;184;906652;-65
2021/09/30 12:15:02;;;;;;;4.53;2.90;;;;;;;;;;753686;182;915209;-64
2021/09/30 12:17:28;;;;;;;5.47;3.20;;;;;;;;;;762165;183;918958;-65
2021/09/30 12:19:54;;;;;;;5.27;3.43;;;;;;;;;;758299;184;918937;-65
2021/09/30 12:22:21;;;;;;;3.13;2.20;;;;;;;;;;753429;183;919316;-64
2021/09/30 12:24:48;;;;;;;6.72;2.67;;;;;;;;;;747643;183;918768;-62
2021/09/30 12:27:13;;;;;;;3.73;2.23;;;;;;;;;;759187;184;914601;-63
2021/09/30 12:29:40;;;;;;;3.12;1.92;;;;;;;;;;759841;183;920715;-63
2021/09/30 12:32:05;;;;;;;3.23;2.10;;;;;;;;;;753867;183;919121;-62
2021/09/30 12:34:31;;;;;;;3.33;1.73;;;;;;;;;;775146;180;919496;-64
2021/09/30 12:36:57;;;;;;;3.72;1.37;;;;;;;;;;758632;181;919524;-63
2021/09/30 12:39:23;;;;;;;2.60;1.10;;;;;;;;;;770576;180;920574;-63
2021/09/30 12:41:49;;;;;;;4.77;1.20;;;;;;;;;;762247;181;917876;-63
2021/09/30 12:44:15;;;;;;;2.20;0.90;;;;;;;;;;769064;181;919927;-63
2021/09/30 12:46:43;;;;;;;2.07;0.80;;;;;;;;;;760298;183;920590;-63
2021/09/30 12:49:09;;;;;;;1.90;0.90;;;;;;;;;;746247;186;919562;-65
2021/09/30 12:51:35;;;;;;;2.17;1.03;;;;;;;;;;753140;184;920930;-65
2021/09/30 12:54:01;;;;;;;3.43;1.07;;;;;;;;;;769560;180;919498;-65
2021/09/30 12:56:28;;;;;;;4.00;1.50;;;;;;;;;;766252;180;921854;-65
2021/09/30 12:58:53;;;;;;;3.07;1.20;;;;;;;;;;762483;181;919360;-64
2021/09/30 13:01:22;;;;;;;1.97;1.10;;;;;;;;;;753358;185;917735;-65
2021/09/30 13:03:54;;;;;;;3.63;1.30;;;;;;;;;;759170;183;921611;-65
2021/09/30 13:06:20;;;;;;;2.30;1.47;;;;;;;;;;759628;180;918111;-65
2021/09/30 13:08:45;;;;;;;2.93;1.00;;;;;;;;;;765847;180;919046;-65
2021/09/30 13:11:17;;;;;;;3.57;1.10;;;;;;;;;;761637;180;992879;-64
2021/09/30 13:13:43;;;;;;;2.55;1.00;;;;;;;;;;770247;179;1124601;-66
2021/09/30 13:16:10;;;;;;;3.22;1.00;;;;;;;;;;766442;180;918295;-65
2021/09/30 13:18:36;;;;;;;3.17;1.00;;;;;;;;;;747849;183;916447;-65
2021/09/30 13:21:02;;;;;;;2.20;1.00;;;;;;;;;;746426;186;919597;-65
2021/09/30 13:23:28;;;;;;;2.73;1.03;;;;;;;;;;753125;183;919404;-64
2021/09/30 13:25:54;;;;;;;2.23;0.83;;;;;;;;;;772206;180;917354;-65
2021/09/30 13:28:20;;;;;;;2.43;1.20;;;;;;;;;;765764;180;919026;-66
2021/09/30 13:30:46;;;;;;;5.00;2.53;;;;;;;;;;760801;183;923485;-66
2021/09/30 13:33:12;;;;;;;2.50;1.30;;;;;;;;;;767965;183;917485;-68
2021/09/30 13:35:39;;;;;;;5.63;1.30;;;;;;;;;;762979;183;919382;-65
2021/09/30 13:38:03;;;;;;;2.25;1.33;;;;;;;;;;762869;183;916621;-68
2021/09/30 13:40:29;;;;;;;3.10;1.33;;;;;;;;;;767028;180;914734;-66
2021/09/30 13:42:55;;;;;;;4.40;1.10;;;;;;;;;;761082;182;919198;-67
2021/09/30 13:45:21;;;;;;;2.43;1.10;;;;;;;;;;760145;183;915296;-65
2021/09/30 13:47:47;;;;;;;3.30;1.20;;;;;;;;;;733178;187;1031255;-64
2021/09/30 13:50:14;;;;;;;2.47;1.03;;;;;;;;;;774919;180;914680;-64
2021/09/30 13:52:38;;;;;;;3.00;1.40;;;;;;;;;;747567;186;916936;-65
2021/09/30 13:55:04;;;;;;;2.33;1.07;;;;;;;;;;763166;180;918209;-65
2021/09/30 13:57:34;;;;;;;3.57;1.40;;;;;;;;;;769623;180;920006;-66
2021/09/30 13:59:56;;;;;;;3.20;1.00;;;;;;;;;;742878;187;926375;-66
2021/09/30 14:02:22;;;;;;;2.47;0.90;;;;;;;;;;730026;190;919616;-64
2021/09/30 14:04:48;;;;;;;2.53;1.20;;;;;;;;;;735084;189;919354;-66
2021/09/30 14:07:13;;;;;;;1.80;1.10;;;;;;;;;;758883;181;918705;-65
2021/09/30 14:09:39;;;;;;;4.00;1.00;;;;;;;;;;763771;180;919839;-65
2021/09/30 14:12:05;;;;;;;2.57;1.07;;;;;;;;;;740539;187;919412;-65
2021/09/30 14:14:31;;;;;;;2.37;1.13;;;;;;;;;;735183;191;918430;-65
2021/09/30 14:16:57;;;;;;;2.40;1.20;;;;;;;;;;753869;184;920261;-65
2021/09/30 14:19:25;;;;;;;2.37;1.10;;;;;;;;;;744349;184;920222;-67
2021/09/30 14:21:50;;;;;;;1.90;0.80;;;;;;;;;;734764;189;1021120;-65
2021/09/30 14:24:15;;;;;;;22.47;1.67;;;;;;;;;;749734;183;1235714;-66
2021/09/30 14:26:41;;;;;;;2.13;1.00;;;;;;;;;;756564;183;919051;-65
2021/09/30 14:29:07;;;;;;;2.03;1.13;;;;;;;;;;758410;183;918744;-66
2021/09/30 14:31:33;;;;;;;3.00;1.67;;;;;;;;;;747737;187;918516;-65
2021/09/30 14:33:59;;;;;;;2.63;1.30;;;;;;;;;;768332;180;918897;-65
2021/09/30 14:36:25;;;;;;;3.60;2.00;;;;;;;;;;749344;185;918410;-65
2021/09/30 14:38:51;;;;;;;3.00;1.23;;;;;;;;;;759744;183;919821;-65
2021/09/30 14:41:16;;;;;;;3.37;1.20;;;;;;;;;;742702;187;918462;-65
2021/09/30 14:43:42;;;;;;;2.57;1.00;;;;;;;;;;757694;183;919518;-65
2021/09/30 14:46:08;;;;;;;1.70;0.90;;;;;;;;;;776926;180;919391;-67
2021/09/30 14:48:37;;;;;;;2.20;0.90;;;;;;;;;;749444;183;919783;-64
2021/09/30 14:51:02;;;;;;;2.37;1.10;;;;;;;;;;752685;184;926690;-65
2021/09/30 14:53:26;;;;;;;3.57;1.10;;;;;;;;;;754306;184;918973;-67
2021/09/30 14:55:52;;;;;;;2.60;1.17;;;;;;;;;;757617;184;918757;-66
2021/09/30 14:58:17;;;;;;;1.83;0.80;;;;;;;;;;762822;183;919117;-67
2021/09/30 15:00:44;;;;;;;3.10;1.33;;;;;;;;;;756244;184;903008;-66
2021/09/30 15:03:10;;;;;;;9.43;1.00;;;;;;;;;;733504;190;918898;-66
2021/09/30 15:05:36;;;;;;;2.07;1.07;;;;;;;;;;742559;186;918429;-66
2021/09/30 15:08:01;;;;;;;3.90;1.00;;;;;;;;;;747336;183;919204;-66
2021/09/30 15:10:28;;;;;;;3.30;1.20;;;;;;;;;;763874;183;918172;-68
2021/09/30 15:12:53;;;;;;;2.30;1.10;;;;;;;;;;756847;184;918789;-66
2021/09/30 15:15:19;;;;;;;2.85;1.08;;;;;;;;;;758061;183;918455;-66
2021/09/30 15:17:52;;;;;;;2.30;1.20;;;;;;;;;;751232;187;919235;-66
2021/09/30 15:21:20;;;;;;;2.97;1.10;;;;;;;;;;758338;183;919346;-65
2021/09/30 15:22:37;;;;;;;8.80;1.00;;;;;;;;;;748213;183;919268;-66
2021/09/30 15:25:03;;;;;;;3.30;1.00;;;;;;;;;;751354;187;919059;-66
2021/09/30 15:27:28;;;;;;;4.73;1.10;;;;;;;;;;761118;183;929962;-66
2021/09/30 15:29:54;;;;;;;2.40;0.90;;;;;;;;;;748127;184;919396;-65
2021/09/30 15:32:21;;;;;;;2.10;1.10;;;;;;;;;;748210;185;931577;-66
2021/09/30 15:34:48;;;;;;;1.70;0.90;;;;;;;;;;750735;185;918757;-66
2021/09/30 15:37:13;;;;;;;2.63;0.97;;;;;;;;;;763263;183;919558;-67
2021/09/30 15:39:38;;;;;;;2.20;0.93;;;;;;;;;;770064;180;919010;-68
2021/09/30 15:42:05;;;;;;;3.37;1.20;;;;;;;;;;759768;181;917629;-66
2021/09/30 15:44:31;;;;;;;1.60;0.83;;;;;;;;;;763681;180;918156;-66
2021/09/30 15:46:56;;;;;;;1.70;0.80;;;;;;;;;;764768;180;920741;-68
2021/09/30 15:49:22;;;;;;;2.90;1.00;;;;;;;;;;769524;180;918139;-67
2021/09/30 15:51:47;;;;;;;2.60;1.10;;;;;;;;;;768967;180;918711;-66
2021/09/30 15:54:13;;;;;;;2.53;1.27;;;;;;;;;;767046;180;921938;-66
2021/09/30 15:56:39;;;;;;;2.53;1.10;;;;;;;;;;749357;180;918590;-66
2021/09/30 15:59:05;;;;;;;3.63;1.33;;;;;;;;;;751201;183;917917;-66
2021/09/30 16:01:32;;;;;;;7.37;1.77;;;;;;;;;;757737;180;978450;-68
2021/09/30 16:03:57;;;;;;;1.90;0.87;;;;;;;;;;753886;183;920124;-67
2021/09/30 16:06:23;;;;;;;4.70;1.00;;;;;;;;;;765345;183;801155;-66
2021/09/30 16:08:49;;;;;;;2.43;1.20;;;;;;;;;;761131;180;917443;-66
2021/09/30 16:11:15;;;;;;;4.30;1.23;;;;;;;;;;748876;186;917721;-66
2021/09/30 16:13:41;;;;;;;2.50;1.00;;;;;;;;;;770102;180;918975;-66
2021/09/30 16:16:07;;;;;;;2.17;0.90;;;;;;;;;;762527;180;920800;-67
2021/09/30 16:18:35;;;;;;;2.97;0.90;;;;;;;;;;756356;183;925380;-67
2021/09/30 16:21:00;;;;;;;2.93;1.13;;;;;;;;;;747178;184;920317;-65
2021/09/30 16:23:26;;;;;;;5.60;1.43;;;;;;;;;;738753;189;622161;-67
2021/09/30 16:25:52;;;;;;;22.10;3.83;;;;;;;;;;760817;180;911785;-67
2021/09/30 16:28:19;;;;;;;14.03;2.33;;;;;;;;;;747245;183;911929;-66
2021/09/30 16:30:44;;;;;;;9.10;1.73;;;;;;;;;;772721;180;901601;-67
2021/09/30 16:33:10;;;;;;;6.43;1.43;;;;;;;;;;768105;180;1024674;-66
2021/09/30 16:35:35;;;;;;;2.90;1.80;;;;;;;;;;765785;180;918905;-66
2021/09/30 16:38:01;;;;;;;4.73;1.30;;;;;;;;;;764771;180;920027;-66
2021/09/30 16:40:27;;;;;;;6.57;1.83;;;;;;;;;;741411;186;918967;-66
2021/09/30 16:42:52;;;;;;;5.60;1.30;;;;;;;;;;756033;183;916672;-66